Time;durP1;ratioP1;P1;durP2;ratioP2;P2;SDS_P1;SDS_P2;PMS_P1;PMS_P2;Temp;Humidity;BMP_temperature;BMP_pressure;BME280_temperature;BME280_humidity;BME280_pressure;Samples;Min_cycle;Max_cycle;Signal;HPM_P1;HPM_P2
2021/05/07 00:00:36;;;;;;;25.80;23.50;;;6.30;99.90;;;;;;5093467;28;20499;-67
2021/05/07 00:03:03;;;;;;;25.77;23.50;;;6.30;99.90;;;;;;5093429;28;20446;-67
2021/05/07 00:05:30;;;;;;;25.03;22.90;;;6.30;99.90;;;;;;5093415;28;20438;-68
2021/05/07 00:07:56;;;;;;;24.17;22.07;;;6.30;99.90;;;;;;5092905;28;20570;-68
2021/05/07 00:10:24;;;;;;;25.30;23.10;;;6.30;99.90;;;;;;5093156;28;20438;-67
2021/05/07 00:12:50;;;;;;;25.80;23.50;;;6.30;99.90;;;;;;5093220;28;20443;-68
2021/05/07 00:15:17;;;;;;;23.87;22.03;;;6.30;99.90;;;;;;5093231;28;20442;-68
2021/05/07 00:17:43;;;;;;;23.97;21.80;;;6.20;99.90;;;;;;5093066;28;20781;-68
2021/05/07 00:20:10;;;;;;;24.57;22.47;;;6.10;99.90;;;;;;5092962;28;20791;-67
2021/05/07 00:22:38;;;;;;;24.23;22.23;;;6.00;99.90;;;;;;5093186;28;20449;-67
2021/05/07 00:25:05;;;;;;;26.43;24.23;;;5.90;99.90;;;;;;5092850;28;20453;-68
2021/05/07 00:27:32;;;;;;;27.77;25.30;;;5.90;99.90;;;;;;5092923;28;20473;-67
2021/05/07 00:29:58;;;;;;;26.63;24.33;;;5.80;99.90;;;;;;5092653;28;20442;-68
2021/05/07 00:32:25;;;;;;;26.40;24.10;;;5.80;99.90;;;;;;5092713;28;20442;-67
2021/05/07 00:34:51;;;;;;;26.30;23.90;;;5.80;99.90;;;;;;5092801;28;20470;-68
2021/05/07 00:37:17;;;;;;;29.20;26.87;;;5.80;99.90;;;;;;5092840;28;20446;-67
2021/05/07 00:39:43;;;;;;;28.97;26.20;;;5.70;99.90;;;;;;5092403;28;20462;-67
2021/05/07 00:42:11;;;;;;;29.60;26.90;;;5.70;99.90;;;;;;5092628;28;20943;-68
2021/05/07 00:44:38;;;;;;;30.47;27.60;;;5.60;99.90;;;;;;5092483;28;20474;-67
2021/05/07 00:47:04;;;;;;;30.70;27.77;;;5.50;99.90;;;;;;5092426;28;20473;-68
2021/05/07 00:49:32;;;;;;;30.13;27.23;;;5.50;99.90;;;;;;5092197;28;20470;-68
2021/05/07 00:51:58;;;;;;;30.90;28.00;;;5.50;99.90;;;;;;5092541;28;20442;-67
2021/05/07 00:54:25;;;;;;;29.00;26.40;;;5.50;99.90;;;;;;5092589;28;20442;-68
2021/05/07 00:56:51;;;;;;;31.23;28.33;;;5.60;99.90;;;;;;5092382;28;20446;-67
2021/05/07 00:59:18;;;;;;;30.17;27.37;;;5.60;99.90;;;;;;5091924;28;20482;-68
2021/05/07 01:01:45;;;;;;;27.93;25.47;;;5.70;99.90;;;;;;5091645;28;20939;-67
2021/05/07 01:04:11;;;;;;;29.07;26.67;;;5.80;99.90;;;;;;5092185;28;20434;-68
2021/05/07 01:06:37;;;;;;;30.57;27.57;;;5.70;99.90;;;;;;5092436;28;20454;-68
2021/05/07 01:09:04;;;;;;;28.83;26.13;;;5.70;99.90;;;;;;5091890;28;20983;-68
2021/05/07 01:11:31;;;;;;;30.70;27.90;;;5.70;99.90;;;;;;5092136;28;20446;-67
2021/05/07 01:13:58;;;;;;;29.20;26.67;;;5.60;99.90;;;;;;5092076;28;20499;-67
2021/05/07 01:16:24;;;;;;;30.90;27.90;;;5.60;99.90;;;;;;5091988;28;20443;-67
2021/05/07 01:18:51;;;;;;;29.30;26.67;;;5.60;99.90;;;;;;5091870;28;20474;-68
2021/05/07 01:21:18;;;;;;;30.07;27.27;;;5.60;99.90;;;;;;5091974;28;20453;-68
2021/05/07 01:23:44;;;;;;;27.53;25.07;;;5.60;99.90;;;;;;5092058;28;20469;-67
2021/05/07 01:26:10;;;;;;;29.23;26.43;;;5.60;99.90;;;;;;5092012;28;20443;-67
2021/05/07 01:28:36;;;;;;;32.60;29.60;;;5.70;99.90;;;;;;5091597;28;20761;-68
2021/05/07 01:31:03;;;;;;;29.63;26.80;;;5.70;99.90;;;;;;5091872;28;20499;-68
2021/05/07 01:33:29;;;;;;;30.80;28.00;;;5.70;99.90;;;;;;5091851;28;20928;-68
2021/05/07 01:35:56;;;;;;;32.13;29.17;;;5.70;99.90;;;;;;5091788;28;20446;-67
2021/05/07 01:38:23;;;;;;;28.77;26.10;;;5.70;99.90;;;;;;5091649;28;20458;-67
2021/05/07 01:40:51;;;;;;;29.70;26.77;;;5.80;99.90;;;;;;5091807;28;20488;-68
2021/05/07 01:43:18;;;;;;;31.63;28.73;;;5.80;99.90;;;;;;5091857;28;20448;-68
2021/05/07 01:45:47;;;;;;;29.23;26.60;;;5.80;99.90;;;;;;5091620;28;20928;-68
2021/05/07 01:48:13;;;;;;;31.73;28.73;;;5.80;99.90;;;;;;5091435;28;20859;-68
2021/05/07 01:50:41;;;;;;;30.73;27.83;;;5.70;99.90;;;;;;5091742;28;20442;-67
2021/05/07 01:53:08;;;;;;;27.10;24.60;;;5.80;99.90;;;;;;5091792;28;20438;-68
2021/05/07 01:55:37;;;;;;;31.13;28.13;;;5.70;99.90;;;;;;5091446;28;20438;-68
2021/05/07 01:58:04;;;;;;;30.77;27.90;;;5.70;99.90;;;;;;5091218;28;20478;-68
2021/05/07 02:00:30;;;;;;;34.80;31.50;;;5.60;99.90;;;;;;5091505;28;20794;-67
2021/05/07 02:02:58;;;;;;;31.40;28.30;;;5.60;99.90;;;;;;5091737;28;20457;-68
2021/05/07 02:05:27;;;;;;;32.17;28.87;;;5.60;99.90;;;;;;5091635;28;20442;-67
2021/05/07 02:07:53;;;;;;;33.37;29.87;;;5.60;99.90;;;;;;5091179;28;20816;-68
2021/05/07 02:10:22;;;;;;;30.67;27.67;;;5.50;99.90;;;;;;5091461;28;20511;-68
2021/05/07 02:12:50;;;;;;;33.70;30.20;;;5.50;99.90;;;;;;5092784;28;20783;-68
2021/05/07 02:15:18;;;;;;;34.13;30.87;;;5.50;99.90;;;;;;5095328;28;20866;-67
2021/05/07 02:17:45;;;;;;;34.17;30.87;;;5.50;99.90;;;;;;5095330;28;20438;-67
2021/05/07 02:20:13;;;;;;;37.97;33.40;;;5.60;99.90;;;;;;5095281;28;20446;-68
2021/05/07 02:22:40;;;;;;;33.10;29.60;;;5.50;99.90;;;;;;5095255;28;20490;-68
2021/05/07 02:25:08;;;;;;;37.33;28.93;;;5.50;99.90;;;;;;5095396;28;20493;-68
2021/05/07 02:27:34;;;;;;;34.53;31.13;;;5.50;99.90;;;;;;5095040;28;20473;-68
2021/05/07 02:30:01;;;;;;;34.80;31.07;;;5.50;99.90;;;;;;5094923;28;20453;-68
2021/05/07 02:32:28;;;;;;;35.87;32.27;;;5.50;99.90;;;;;;5095316;28;20449;-67
2021/05/07 02:34:54;;;;;;;33.80;30.50;;;5.40;99.90;;;;;;5095041;28;20450;-68
2021/05/07 02:37:20;;;;;;;36.00;32.27;;;5.40;99.90;;;;;;5095160;28;20439;-67
2021/05/07 02:39:46;;;;;;;33.53;30.10;;;5.30;99.90;;;;;;5094777;28;20982;-68
2021/05/07 02:42:12;;;;;;;33.97;29.87;;;5.20;99.90;;;;;;5095035;28;20457;-68
2021/05/07 02:44:38;;;;;;;35.10;31.60;;;5.10;99.90;;;;;;5094711;28;20446;-68
2021/05/07 02:47:05;;;;;;;37.33;33.13;;;5.10;99.90;;;;;;5094892;28;20958;-68
2021/05/07 02:49:32;;;;;;;36.73;32.87;;;5.00;99.90;;;;;;5094489;28;20473;-68
2021/05/07 02:52:00;;;;;;;36.67;32.67;;;4.90;99.90;;;;;;5094760;28;20446;-67
2021/05/07 02:54:26;;;;;;;38.37;34.47;;;4.90;99.90;;;;;;5094865;28;20453;-68
2021/05/07 02:56:52;;;;;;;40.73;36.50;;;4.90;99.90;;;;;;5094622;28;20484;-67
2021/05/07 02:59:18;;;;;;;43.63;38.23;;;4.90;99.90;;;;;;5094248;28;20530;-68
2021/05/07 03:01:45;;;;;;;40.13;35.80;;;4.90;99.90;;;;;;5094638;28;20438;-68
2021/05/07 03:04:12;;;;;;;40.90;35.27;;;4.90;99.90;;;;;;5094509;28;20487;-68
2021/05/07 03:06:38;;;;;;;39.90;35.57;;;5.00;99.90;;;;;;5094600;28;20932;-68
2021/05/07 03:09:05;;;;;;;44.77;36.27;;;5.10;99.90;;;;;;5094224;28;20546;-67
2021/05/07 03:11:31;;;;;;;39.80;35.67;;;5.20;99.90;;;;;;5094359;28;20446;-68
2021/05/07 03:13:57;;;;;;;37.80;33.80;;;5.30;99.90;;;;;;5094407;28;20442;-67
2021/05/07 03:16:23;;;;;;;39.23;35.07;;;5.30;99.90;;;;;;5094311;28;20449;-67
2021/05/07 03:18:50;;;;;;;42.67;33.07;;;5.40;99.90;;;;;;5094177;28;20469;-67
2021/05/07 03:21:17;;;;;;;37.10;33.10;;;5.50;99.90;;;;;;5094178;28;20443;-67
2021/05/07 03:23:44;;;;;;;38.37;34.27;;;5.50;99.90;;;;;;5094120;28;20438;-68
2021/05/07 03:26:10;;;;;;;38.60;33.53;;;5.50;99.90;;;;;;5093872;28;20446;-68
2021/05/07 03:28:39;;;;;;;37.20;33.17;;;5.50;99.90;;;;;;5093817;28;20513;-68
2021/05/07 03:31:05;;;;;;;35.50;31.90;;;5.60;99.90;;;;;;5094038;28;20442;-68
2021/05/07 03:33:31;;;;;;;39.33;35.20;;;5.60;99.90;;;;;;5094006;28;21020;-68
2021/05/07 03:35:57;;;;;;;37.50;33.50;;;5.60;99.90;;;;;;5093792;28;20446;-68
2021/05/07 03:38:24;;;;;;;37.00;33.27;;;5.50;99.90;;;;;;5093665;28;20480;-68
2021/05/07 03:40:50;;;;;;;35.73;32.20;;;5.40;99.90;;;;;;5093669;28;20990;-68
2021/05/07 03:43:17;;;;;;;40.30;35.97;;;5.40;99.90;;;;;;5093703;28;20503;-67
2021/05/07 03:45:43;;;;;;;42.17;37.77;;;5.30;99.90;;;;;;5093725;28;20450;-68
2021/05/07 03:48:16;;;;;;;37.80;33.80;;;5.20;99.90;;;;;;5093515;28;20490;-68
2021/05/07 03:50:43;;;;;;;42.67;37.30;;;5.10;99.90;;;;;;5093643;28;20449;-68
2021/05/07 03:53:10;;;;;;;41.30;35.30;;;5.00;99.90;;;;;;5093770;28;20513;-68
2021/05/07 03:55:38;;;;;;;45.77;39.07;;;4.90;99.90;;;;;;5093513;28;20446;-68
2021/05/07 03:58:04;;;;;;;46.77;37.90;;;4.80;99.90;;;;;;5093229;28;20519;-68
2021/05/07 04:00:30;;;;;;;46.87;41.57;;;4.70;99.90;;;;;;5093371;28;20449;-68
2021/05/07 04:02:57;;;;;;;46.43;41.20;;;4.70;99.90;;;;;;5093466;28;20453;-68
2021/05/07 04:05:23;;;;;;;54.10;42.27;;;4.60;99.90;;;;;;5093383;28;20513;-67
2021/05/07 04:07:58;;;;;;;50.33;42.93;;;4.60;99.90;;;;;;5093012;28;20514;-68
2021/05/07 04:10:25;;;;;;;46.30;39.67;;;4.60;99.90;;;;;;5093300;28;20491;-68
2021/05/07 04:15:36;;;;;;;55.80;43.70;;;4.50;99.90;;;;;;5093274;28;20421;-68
2021/05/07 04:18:02;;;;;;;57.07;44.27;;;4.50;99.90;;;;;;5092887;28;20997;-68
2021/05/07 04:20:28;;;;;;;58.23;45.00;;;4.60;99.90;;;;;;5092948;28;20508;-67
2021/05/07 04:22:54;;;;;;;61.70;45.63;;;4.60;99.90;;;;;;5093143;28;20450;-68
2021/05/07 04:25:21;;;;;;;56.57;45.10;;;4.60;99.90;;;;;;5093041;28;20439;-68
2021/05/07 04:27:47;;;;;;;61.70;48.10;;;4.70;99.90;;;;;;5092603;28;20474;-68
2021/05/07 04:30:15;;;;;;;62.37;48.30;;;4.70;99.90;;;;;;5092804;28;20588;-68
2021/05/07 04:32:42;;;;;;;58.27;47.10;;;4.90;99.90;;;;;;5092823;28;20442;-68
2021/05/07 04:35:09;;;;;;;61.30;47.60;;;5.00;99.90;;;;;;5092837;28;20453;-68
2021/05/07 04:37:35;;;;;;;61.10;47.67;;;5.10;99.90;;;;;;5091738;28;20530;-67
2021/05/07 04:40:02;;;;;;;65.77;50.50;;;5.20;99.90;;;;;;5092555;28;20438;-67
2021/05/07 04:42:28;;;;;;;61.67;47.40;;;5.20;99.90;;;;;;5092634;28;20476;-68
2021/05/07 04:44:54;;;;;;;66.10;48.63;;;5.30;99.90;;;;;;5092738;28;20954;-68
2021/05/07 04:47:21;;;;;;;64.20;48.30;;;5.40;99.90;;;;;;5092555;28;20442;-67
2021/05/07 04:49:47;;;;;;;62.87;46.23;;;5.50;99.90;;;;;;5092235;28;20914;-66
2021/05/07 04:52:13;;;;;;;56.83;46.67;;;5.50;99.90;;;;;;5092552;28;20449;-66
2021/05/07 04:54:39;;;;;;;57.47;44.40;;;5.60;99.90;;;;;;5092297;28;20457;-69
2021/05/07 04:57:06;;;;;;;51.10;44.93;;;5.70;99.90;;;;;;5092454;28;20442;-69
2021/05/07 04:59:33;;;;;;;59.07;46.13;;;5.70;99.90;;;;;;5091982;28;20641;-66
2021/05/07 05:01:59;;;;;;;50.17;42.87;;;5.60;99.90;;;;;;5092682;28;20443;-67
2021/05/07 05:04:26;;;;;;;47.17;41.50;;;5.70;99.90;;;;;;5092208;28;20450;-67
2021/05/07 05:06:52;;;;;;;49.60;41.70;;;5.80;99.90;;;;;;5092121;28;20430;-67
2021/05/07 05:09:18;;;;;;;50.17;43.67;;;6.00;99.90;;;;;;5091804;28;20859;-67
2021/05/07 05:11:44;;;;;;;54.30;44.40;;;6.20;99.90;;;;;;5092156;28;20447;-68
2021/05/07 05:14:11;;;;;;;50.20;42.60;;;6.20;99.90;;;;;;5091985;28;20442;-67
2021/05/07 05:16:37;;;;;;;47.93;37.07;;;6.30;99.90;;;;;;5092074;28;20442;-67
2021/05/07 05:19:03;;;;;;;48.27;43.10;;;6.30;99.90;;;;;;5091856;28;21135;-67
2021/05/07 05:21:30;;;;;;;52.47;44.63;;;6.30;99.90;;;;;;5091921;28;20669;-67
2021/05/07 05:23:56;;;;;;;47.30;42.30;;;6.30;99.90;;;;;;5092013;28;20442;-67
2021/05/07 05:26:23;;;;;;;47.10;41.20;;;6.40;99.90;;;;;;5091911;28;20442;-67
2021/05/07 05:28:49;;;;;;;47.83;43.20;;;6.40;99.90;;;;;;5091411;28;20897;-69
2021/05/07 05:31:15;;;;;;;42.53;38.10;;;6.40;99.90;;;;;;5091846;28;20434;-67
2021/05/07 05:33:41;;;;;;;46.53;41.60;;;6.60;99.90;;;;;;5091900;28;20503;-67
2021/05/07 05:36:07;;;;;;;45.87;35.50;;;6.70;99.90;;;;;;5091970;28;20442;-67
2021/05/07 05:38:34;;;;;;;45.07;40.53;;;6.90;99.90;;;;;;5091516;28;20455;-67
2021/05/07 05:41:00;;;;;;;44.43;39.20;;;6.90;99.90;;;;;;5091563;28;20954;-67
2021/05/07 05:43:27;;;;;;;43.97;39.47;;;7.00;99.90;;;;;;5091616;28;20438;-66
2021/05/07 05:45:53;;;;;;;41.70;37.07;;;7.00;99.90;;;;;;5091569;28;20453;-67
2021/05/07 05:48:19;;;;;;;46.30;41.60;;;6.90;99.90;;;;;;5091206;28;20552;-67
2021/05/07 05:50:47;;;;;;;42.70;35.93;;;6.80;99.90;;;;;;5091501;28;20446;-67
2021/05/07 05:53:15;;;;;;;47.53;40.90;;;6.70;99.90;;;;;;5091645;28;20446;-67
2021/05/07 05:55:42;;;;;;;36.53;32.80;;;6.60;99.90;;;;;;5091444;28;20445;-66
2021/05/07 05:58:08;;;;;;;35.73;32.30;;;6.30;99.90;;;;;;5091126;28;20474;-65
2021/05/07 06:00:35;;;;;;;33.27;29.80;;;6.00;99.90;;;;;;5091475;28;20793;-66
2021/05/07 06:03:01;;;;;;;37.93;34.00;;;5.80;99.90;;;;;;5091509;28;20534;-67
2021/05/07 06:05:27;;;;;;;42.80;35.63;;;5.70;99.90;;;;;;5091561;28;20449;-67
2021/05/07 06:07:54;;;;;;;35.80;32.20;;;5.70;99.90;;;;;;5091438;28;20482;-66
2021/05/07 06:10:21;;;;;;;29.60;26.60;;;5.80;99.90;;;;;;5090750;28;20504;-67
2021/05/07 06:12:50;;;;;;;31.30;28.20;;;6.00;99.90;;;;;;5091386;28;20446;-67
2021/05/07 06:15:18;;;;;;;25.83;23.57;;;6.20;99.90;;;;;;5091092;28;20434;-66
2021/05/07 06:17:46;;;;;;;26.33;24.07;;;6.40;99.90;;;;;;5091119;28;20438;-69
2021/05/07 06:20:16;;;;;;;31.00;28.17;;;6.30;99.90;;;;;;5091468;28;20443;-68
2021/05/07 06:22:43;;;;;;;29.27;26.27;;;6.30;99.90;;;;;;5091673;28;20810;-65
2021/05/07 06:25:11;;;;;;;26.90;24.23;;;6.40;99.90;;;;;;5091269;28;20447;-66
2021/05/07 06:27:37;;;;;;;27.07;24.57;;;6.60;99.90;;;;;;5090875;28;20513;-66
2021/05/07 06:30:06;;;;;;;25.47;23.13;;;6.70;99.90;;;;;;5091161;28;20449;-66
2021/05/07 06:32:32;;;;;;;26.00;23.37;;;6.80;99.90;;;;;;5091162;28;20453;-65
2021/05/07 06:34:59;;;;;;;25.97;23.53;;;6.80;99.90;;;;;;5091179;28;20446;-65
2021/05/07 06:37:25;;;;;;;21.93;19.73;;;6.90;99.90;;;;;;5090619;28;20601;-66
2021/05/07 06:39:52;;;;;;;26.70;22.90;;;6.80;99.90;;;;;;5090508;28;20466;-67
2021/05/07 06:42:18;;;;;;;24.53;22.20;;;6.70;99.90;;;;;;5090459;28;20438;-67
2021/05/07 06:44:45;;;;;;;21.70;19.90;;;6.90;99.90;;;;;;5091246;28;20450;-66
2021/05/07 06:47:12;;;;;;;21.60;19.80;;;6.80;99.90;;;;;;5090524;28;20447;-65
2021/05/07 06:49:38;;;;;;;22.13;20.13;;;6.80;99.90;;;;;;5089497;28;20488;-69
2021/05/07 06:52:05;;;;;;;22.03;20.33;;;6.70;99.90;;;;;;5089940;28;20449;-66
2021/05/07 06:54:31;;;;;;;21.10;19.30;;;6.60;99.90;;;;;;5089784;28;20434;-69
2021/05/07 06:56:59;;;;;;;25.33;23.20;;;6.50;99.90;;;;;;5090037;28;20453;-65
2021/05/07 06:59:27;;;;;;;25.90;23.80;;;6.20;99.90;;;;;;5090186;28;20474;-66
2021/05/07 07:01:53;;;;;;;23.93;22.30;;;5.90;99.90;;;;;;5093564;28;20442;-67
2021/05/07 07:04:20;;;;;;;24.80;22.97;;;5.80;99.90;;;;;;5093747;28;20530;-65
2021/05/07 07:06:47;;;;;;;25.93;23.93;;;5.70;99.90;;;;;;5094440;28;20854;-68
2021/05/07 07:09:14;;;;;;;26.50;23.77;;;5.50;99.90;;;;;;5094011;28;20488;-68
2021/05/07 07:11:41;;;;;;;33.70;30.67;;;5.50;99.90;;;;;;5094279;28;20442;-68
2021/05/07 07:14:07;;;;;;;34.17;31.17;;;5.40;99.90;;;;;;5094072;28;20472;-69
2021/05/07 07:16:34;;;;;;;20.90;18.97;;;5.40;99.90;;;;;;5094012;28;20442;-67
2021/05/07 07:19:00;;;;;;;18.30;16.50;;;5.00;99.90;;;;;;5093880;28;20524;-65
2021/05/07 07:21:27;;;;;;;16.40;14.90;;;4.50;99.90;;;;;;5093990;28;20942;-68
2021/05/07 07:23:53;;;;;;;17.37;15.53;;;4.30;99.90;;;;;;5093780;28;20449;-68
2021/05/07 07:26:21;;;;;;;15.37;13.77;;;4.30;99.90;;;;;;5094005;28;20446;-66
2021/05/07 07:28:49;;;;;;;16.40;14.90;;;4.20;99.90;;;;;;5093598;28;21010;-66
2021/05/07 07:31:16;;;;;;;18.17;16.23;;;4.10;99.90;;;;;;5093793;28;20447;-68
2021/05/07 07:33:42;;;;;;;17.30;15.57;;;4.10;99.90;;;;;;5093890;28;20449;-69
2021/05/07 07:36:09;;;;;;;16.03;14.43;;;4.20;99.90;;;;;;5093952;28;20520;-67
2021/05/07 07:38:36;;;;;;;15.27;13.77;;;4.40;99.90;;;;;;5093341;28;20879;-68
2021/05/07 07:41:02;;;;;;;16.23;14.30;;;4.40;99.90;;;;;;5093603;28;20438;-68
2021/05/07 07:43:28;;;;;;;16.17;14.57;;;4.60;99.90;;;;;;5093677;28;20789;-68
2021/05/07 07:45:55;;;;;;;16.63;15.03;;;4.80;99.90;;;;;;5093590;28;20469;-69
2021/05/07 07:48:21;;;;;;;17.30;15.60;;;5.10;99.90;;;;;;5093377;28;20489;-67
2021/05/07 07:50:47;;;;;;;17.27;15.47;;;5.00;99.90;;;;;;5093498;28;20454;-68
2021/05/07 07:53:13;;;;;;;15.87;14.17;;;5.10;99.90;;;;;;5093422;28;20453;-67
2021/05/07 07:55:40;;;;;;;16.63;15.03;;;5.20;99.90;;;;;;5093464;28;20450;-68
2021/05/07 07:58:08;;;;;;;17.60;14.37;;;5.20;99.90;;;;;;5093006;28;20470;-68
2021/05/07 08:00:34;;;;;;;16.60;15.00;;;5.20;99.90;;;;;;5093161;28;20446;-68
2021/05/07 08:03:00;;;;;;;17.27;15.47;;;5.20;99.90;;;;;;5093296;28;20450;-68
2021/05/07 08:05:27;;;;;;;18.73;16.83;;;5.10;99.90;;;;;;5093252;28;20446;-68
2021/05/07 08:07:57;;;;;;;17.50;15.70;;;5.20;99.90;;;;;;5092774;28;20485;-68
2021/05/07 08:10:23;;;;;;;14.30;13.00;;;5.20;99.90;;;;;;5093049;28;20475;-68
2021/05/07 08:12:50;;;;;;;18.83;17.33;;;5.40;99.90;;;;;;5093248;28;20873;-69
2021/05/07 08:15:19;;;;;;;21.10;19.57;;;5.60;99.90;;;;;;5092881;28;20445;-69
2021/05/07 08:17:47;;;;;;;25.90;24.00;;;5.90;99.90;;;;;;5092675;28;20446;-68
2021/05/07 08:20:14;;;;;;;23.63;21.80;;;6.00;99.90;;;;;;5092752;28;20485;-67
2021/05/07 08:22:41;;;;;;;24.87;23.03;;;6.20;99.90;;;;;;5092887;28;20446;-68
2021/05/07 08:25:10;;;;;;;20.53;19.10;;;6.50;99.90;;;;;;5092762;28;20438;-68
2021/05/07 08:27:36;;;;;;;22.40;20.90;;;6.90;99.90;;;;;;5092625;28;20479;-68
2021/05/07 08:30:04;;;;;;;22.33;20.90;;;7.40;99.90;;;;;;5092474;28;20446;-69
2021/05/07 08:32:30;;;;;;;23.37;21.60;;;7.80;99.90;;;;;;5092649;28;20476;-69
2021/05/07 08:34:56;;;;;;;25.17;23.57;;;7.90;99.90;;;;;;5092576;28;20931;-68
2021/05/07 08:37:23;;;;;;;25.10;23.40;;;8.30;99.90;;;;;;5092479;28;20469;-68
2021/05/07 08:39:49;;;;;;;25.13;23.40;;;8.40;99.90;;;;;;5092088;28;20454;-67
2021/05/07 08:42:17;;;;;;;25.63;23.93;;;8.60;99.90;;;;;;5092381;28;20529;-68
2021/05/07 08:44:43;;;;;;;26.20;24.60;;;9.10;99.90;;;;;;5092402;28;20442;-67
2021/05/07 08:47:10;;;;;;;23.83;22.53;;;9.10;99.90;;;;;;5092436;28;20446;-68
2021/05/07 08:49:37;;;;;;;23.63;22.03;;;9.00;99.90;;;;;;5092083;28;20478;-69
2021/05/07 08:52:04;;;;;;;23.60;22.00;;;8.50;99.90;;;;;;5092367;28;20443;-68
2021/05/07 08:54:30;;;;;;;23.30;21.90;;;8.20;99.90;;;;;;5092264;28;20521;-68
2021/05/07 08:56:57;;;;;;;23.00;21.50;;;7.40;99.90;;;;;;5092115;28;20449;-68
2021/05/07 08:59:23;;;;;;;24.27;22.57;;;7.80;99.90;;;;;;5091819;28;20561;-69
2021/05/07 09:01:51;;;;;;;24.23;22.53;;;8.50;99.90;;;;;;5091973;28;20496;-68
2021/05/07 09:04:19;;;;;;;21.17;19.87;;;8.00;99.90;;;;;;5092192;28;20939;-69
2021/05/07 09:06:50;;;;;;;20.80;19.50;;;7.80;99.90;;;;;;5092075;28;20923;-69
2021/05/07 09:09:18;;;;;;;21.53;20.20;;;8.00;99.90;;;;;;5091722;28;21015;-68
2021/05/07 09:11:44;;;;;;;23.60;22.13;;;8.00;99.90;;;;;;5091912;28;20815;-68
2021/05/07 09:14:11;;;;;;;25.53;23.83;;;8.50;99.90;;;;;;5091856;28;20430;-69
2021/05/07 09:16:48;;;;;;;26.30;24.40;;;9.10;99.90;;;;;;5091842;28;20461;-68
2021/05/07 09:19:19;;;;;;;22.93;21.27;;;9.70;99.90;;;;;;5091520;28;20470;-69
2021/05/07 09:21:45;;;;;;;24.03;22.53;;;9.50;99.90;;;;;;5091801;28;20442;-68
2021/05/07 09:24:11;;;;;;;21.03;19.67;;;9.20;99.90;;;;;;5091548;28;20524;-69
2021/05/07 09:26:48;;;;;;;20.23;18.90;;;9.40;99.90;;;;;;5091673;28;20438;-69
2021/05/07 09:29:22;;;;;;;17.70;17.00;;;9.20;99.90;;;;;;5091490;28;20869;-68
2021/05/07 09:31:50;;;;;;;17.23;16.50;;;9.50;99.90;;;;;;5091652;28;20438;-69
2021/05/07 09:34:19;;;;;;;17.17;16.50;;;9.60;99.90;;;;;;5091510;28;20458;-69
2021/05/07 09:36:45;;;;;;;16.97;16.27;;;9.20;99.90;;;;;;5091667;28;20465;-68
2021/05/07 09:39:13;;;;;;;17.27;16.57;;;9.00;99.90;;;;;;5091416;28;20458;-68
2021/05/07 09:41:41;;;;;;;16.73;15.93;;;9.00;99.90;;;;;;5091789;28;21008;-68
2021/05/07 09:44:18;;;;;;;16.40;15.80;;;9.10;99.90;;;;;;5091527;28;20443;-69
2021/05/07 09:46:45;;;;;;;16.07;15.50;;;9.40;99.90;;;;;;5091567;28;20446;-69
2021/05/07 09:49:26;;;;;;;16.87;16.17;;;9.40;99.90;;;;;;5091086;28;20490;-69
2021/05/07 09:51:53;;;;;;;17.23;16.53;;;9.50;99.90;;;;;;5091475;28;20438;-68
2021/05/07 09:54:23;;;;;;;16.10;15.50;;;9.90;99.90;;;;;;5091405;28;20454;-68
2021/05/07 09:56:50;;;;;;;17.87;17.07;;;9.90;99.90;;;;;;5091883;28;20442;-69
2021/05/07 09:59:18;;;;;;;18.30;17.30;;;10.20;99.90;;;;;;5090948;28;20474;-69
2021/05/07 10:01:44;;;;;;;17.43;16.73;;;9.90;99.90;;;;;;5091299;28;20445;-68
2021/05/07 10:04:12;;;;;;;16.77;16.10;;;10.00;99.90;;;;;;5091222;28;20439;-68
2021/05/07 10:06:39;;;;;;;16.97;16.37;;;10.20;99.90;;;;;;5091199;28;20511;-68
2021/05/07 10:09:06;;;;;;;16.67;16.07;;;10.50;98.80;;;;;;5090822;28;20539;-69
2021/05/07 10:11:37;;;;;;;17.20;16.50;;;10.40;99.50;;;;;;5091237;28;20824;-68
2021/05/07 10:14:08;;;;;;;16.47;15.87;;;10.30;97.60;;;;;;5091084;28;20457;-69
2021/05/07 10:16:35;;;;;;;17.37;16.67;;;10.30;95.90;;;;;;5091199;28;20453;-69
2021/05/07 10:19:02;;;;;;;17.80;17.10;;;10.10;97.60;;;;;;5090818;28;20465;-69
2021/05/07 10:21:37;;;;;;;17.40;16.70;;;10.40;97.70;;;;;;5091109;28;20442;-68
2021/05/07 10:24:05;;;;;;;17.10;16.20;;;10.80;96.40;;;;;;5091171;28;20498;-68
2021/05/07 10:26:37;;;;;;;17.33;16.73;;;10.80;94.70;;;;;;5091298;28;20446;-68
2021/05/07 10:29:18;;;;;;;17.33;16.70;;;10.30;90.90;;;;;;5090741;28;21054;-69
2021/05/07 10:31:46;;;;;;;16.20;15.67;;;10.20;93.40;;;;;;5091125;28;20453;-69
2021/05/07 10:34:12;;;;;;;17.50;16.80;;;9.80;95.50;;;;;;5091174;28;20494;-69
2021/05/07 10:36:40;;;;;;;18.67;17.97;;;10.10;95.50;;;;;;5094708;28;20447;-68
2021/05/07 10:39:17;;;;;;;17.80;17.20;;;11.20;93.30;;;;;;5094612;28;20454;-69
2021/05/07 10:41:43;;;;;;;19.03;18.33;;;11.80;77.70;;;;;;5094810;28;20819;-69
2021/05/07 10:44:10;;;;;;;18.87;18.00;;;12.40;76.40;;;;;;5094875;28;20450;-68
2021/05/07 10:46:37;;;;;;;18.00;17.27;;;11.50;72.40;;;;;;5094645;28;20468;-68
2021/05/07 10:49:03;;;;;;;18.47;17.87;;;11.20;77.00;;;;;;5094260;28;20486;-69
2021/05/07 10:51:29;;;;;;;18.53;17.73;;;11.10;73.50;;;;;;5094453;28;21053;-69
2021/05/07 10:54:05;;;;;;;18.20;17.60;;;11.40;70.40;;;;;;5094593;28;20797;-69
2021/05/07 10:56:35;;;;;;;19.27;18.47;;;12.10;71.10;;;;;;5094434;28;20519;-69
2021/05/07 10:59:12;;;;;;;20.07;19.10;;;11.50;68.30;;;;;;5094066;28;20993;-69
2021/05/07 11:01:38;;;;;;;18.70;18.00;;;11.40;68.90;;;;;;5094780;28;20507;-68
2021/05/07 11:04:08;;;;;;;19.27;18.57;;;11.90;67.50;;;;;;5094256;28;20442;-68
2021/05/07 11:06:36;;;;;;;18.80;18.10;;;12.70;69.50;;;;;;5094164;28;20442;-68
2021/05/07 11:09:16;;;;;;;20.10;19.30;;;13.00;66.00;;;;;;5093776;28;20482;-69
2021/05/07 11:11:43;;;;;;;20.27;19.40;;;13.70;60.50;;;;;;5094149;28;20542;-68
2021/05/07 11:14:12;;;;;;;18.67;17.87;;;13.70;57.80;;;;;;5094032;28;20442;-69
2021/05/07 11:16:39;;;;;;;17.67;17.07;;;14.40;55.90;;;;;;5094118;28;20893;-68
2021/05/07 11:19:06;;;;;;;18.37;17.77;;;14.20;54.40;;;;;;5093836;28;20458;-69
2021/05/07 11:21:32;;;;;;;18.60;17.80;;;14.20;53.40;;;;;;5094039;28;20476;-68
2021/05/07 11:23:59;;;;;;;17.97;17.37;;;13.80;54.00;;;;;;5093949;28;20489;-68
2021/05/07 11:26:36;;;;;;;18.20;17.60;;;14.30;52.60;;;;;;5094041;28;20445;-68
2021/05/07 11:29:04;;;;;;;17.93;17.17;;;16.70;50.40;;;;;;5093545;28;20572;-69
2021/05/07 11:31:30;;;;;;;17.63;17.00;;;16.10;46.70;;;;;;5093846;28;20442;-68
2021/05/07 11:33:57;;;;;;;17.63;16.93;;;14.10;46.90;;;;;;5093845;28;20449;-68
2021/05/07 11:36:23;;;;;;;18.50;17.60;;;13.10;50.40;;;;;;5093790;28;20469;-68
2021/05/07 11:38:49;;;;;;;18.37;17.67;;;13.00;53.00;;;;;;5093734;28;20477;-68
2021/05/07 11:41:17;;;;;;;17.33;16.63;;;12.80;53.30;;;;;;5093558;28;20511;-67
2021/05/07 11:43:43;;;;;;;17.93;17.33;;;14.00;52.90;;;;;;5093861;28;20931;-68
2021/05/07 11:46:10;;;;;;;18.90;18.20;;;17.80;49.10;;;;;;5093588;28;20450;-68
2021/05/07 11:48:38;;;;;;;19.70;18.80;;;21.30;44.40;;;;;;5093333;28;20936;-66
2021/05/07 11:51:06;;;;;;;19.37;18.57;;;21.70;37.90;;;;;;5093384;28;20478;-66
2021/05/07 11:53:33;;;;;;;19.07;18.37;;;23.70;34.30;;;;;;5093442;28;20450;-66
2021/05/07 11:55:59;;;;;;;18.73;18.03;;;22.80;29.60;;;;;;5093313;28;20446;-66
2021/05/07 11:58:33;;;;;;;19.70;18.60;;;24.90;31.40;;;;;;5092846;28;21056;-66
2021/05/07 12:00:59;;;;;;;18.97;18.17;;;24.20;29.20;;;;;;5093125;28;20445;-66
2021/05/07 12:03:37;;;;;;;18.50;17.80;;;21.90;30.30;;;;;;5093164;28;20499;-66
2021/05/07 12:06:18;;;;;;;18.33;17.63;;;21.90;29.50;;;;;;5093187;28;20476;-66
2021/05/07 12:08:44;;;;;;;19.77;18.97;;;20.20;32.10;;;;;;5092837;28;20482;-68
2021/05/07 12:11:12;;;;;;;18.30;17.40;;;19.00;33.60;;;;;;5093085;28;20815;-66
2021/05/07 12:13:39;;;;;;;20.03;19.20;;;21.10;34.90;;;;;;5092847;28;20448;-66
2021/05/07 12:16:06;;;;;;;19.50;18.80;;;21.70;31.50;;;;;;5093308;28;20504;-68
2021/05/07 12:18:33;;;;;;;18.87;18.07;;;19.80;32.30;;;;;;5092812;28;20462;-68
2021/05/07 12:21:02;;;;;;;18.77;17.90;;;18.40;34.20;;;;;;5093148;28;20450;-67
2021/05/07 12:23:40;;;;;;;18.63;18.03;;;17.40;36.40;;;;;;5093019;28;20935;-68
2021/05/07 12:26:06;;;;;;;19.37;18.57;;;19.40;38.20;;;;;;5093059;28;20507;-68
2021/05/07 12:28:33;;;;;;;19.23;18.53;;;25.00;34.10;;;;;;5092517;28;20482;-65
2021/05/07 12:31:02;;;;;;;17.90;17.30;;;24.50;28.70;;;;;;5092598;28;20442;-65
2021/05/07 12:33:29;;;;;;;18.70;18.00;;;23.30;27.90;;;;;;5092656;28;20450;-68
2021/05/07 12:35:56;;;;;;;18.77;17.93;;;24.10;30.80;;;;;;5092593;28;20454;-67
2021/05/07 12:38:33;;;;;;;19.43;18.73;;;26.70;28.90;;;;;;5092380;28;20458;-65